PWSweather.com
Personal Weather Stations
Station Observations
KPAEXPOR2
Wellington Estates, Export, PA 15632

Wellington EstatesExport, PA 15632

Lat: 40.446, Lon: -79.592

Elevation: 1286

Station Type: PWS1000-TD

http://www.westmorelandweather.com

Latest ConditionsUpdated 7:00:00 PM EDT Tuesday, Mar 26, 2019
Currently Today's Max Today's Min Today's Average
Temperature 44.9°F7.2°C 51.3°F10.7°C 22.9°F-5.1°C 36.5°F2.5°C
Dew Point -0.1°F-17.8°C 5.5°F-14.7°C -4.9°F-20.5°C 1.6°F-16.9°C
Winds 1.0 mph N1.6 kmh N 6.8 mph -10.9 kmh - - 3.4 mph 5.5 kmh
Wind Gusts 2.2 mph3.5 kmh 12.1 mph19.5 kmh - -
Humidity 15% 42% 15% 24%
Pressure 30.43 in1030.5 mb 30.48 in1032.2 mb 30.28 in1025.4 mb -
Hour Temp Dew Point Humidity Winds Wind Gusts Pressure Precip Precip Rate Daily Precip Total
07:00 PM 44.9°F7.2°C -0.1°F-17.8°C 15% 1.0 mph N1.6 kmh N 2.2 mph3.5 kmh 30.43 in1030.5 mb 0.00 in0.0 mm 0.00 in0.0 mm 0.01 in0.3 mm
06:45 PM 45.4°F7.4°C 0.4°F-17.6°C 15% 3.2 mph NE5.1 kmh NE 6.0 mph9.7 kmh 30.43 in1030.5 mb 0.00 in0.0 mm 0.00 in0.0 mm 0.01 in0.3 mm
06:30 PM 45.8°F7.7°C 0.6°F-17.4°C 15% 3.9 mph N6.3 kmh N 5.4 mph8.7 kmh 30.43 in1030.5 mb 0.00 in0.0 mm 0.00 in0.0 mm 0.01 in0.3 mm
06:15 PM 47.0°F8.3°C 1.7°F-16.8°C 15% 3.4 mph NNW5.5 kmh NNW 6.0 mph9.7 kmh 30.43 in1030.5 mb 0.00 in0.0 mm 0.00 in0.0 mm 0.01 in0.3 mm
06:00 PM 47.7°F8.7°C 2.2°F-16.6°C 15% 5.6 mph N9.0 kmh N 8.3 mph13.4 kmh 30.43 in1030.5 mb 0.00 in0.0 mm 0.00 in0.0 mm 0.01 in0.3 mm
05:45 PM 48.1°F8.9°C 2.5°F-16.4°C 15% 4.8 mph N7.7 kmh N 12.1 mph19.5 kmh 30.42 in1030.1 mb 0.00 in0.0 mm 0.00 in0.0 mm 0.01 in0.3 mm
05:30 PM 48.6°F9.2°C 3.0°F-16.1°C 15% 5.0 mph N8.0 kmh N 7.6 mph12.2 kmh 30.43 in1030.5 mb 0.00 in0.0 mm 0.00 in0.0 mm 0.01 in0.3 mm
05:15 PM 48.8°F9.3°C 3.1°F-16.1°C 15% 4.9 mph NE7.9 kmh NE 9.2 mph14.8 kmh 30.43 in1030.5 mb 0.00 in0.0 mm 0.00 in0.0 mm 0.01 in0.3 mm
05:00 PM 49.0°F9.4°C 3.3°F-15.9°C 15% 4.2 mph NNW6.8 kmh NNW 6.0 mph9.7 kmh 30.43 in1030.5 mb 0.00 in0.0 mm 0.00 in0.0 mm 0.01 in0.3 mm
04:45 PM 49.4°F9.7°C 3.6°F-15.8°C 15% 5.7 mph N9.2 kmh N 9.2 mph14.8 kmh 30.43 in1030.5 mb 0.00 in0.0 mm 0.00 in0.0 mm 0.01 in0.3 mm
04:30 PM 49.4°F9.7°C 3.6°F-15.8°C 15% 5.0 mph NW8.0 kmh NW 6.9 mph11.1 kmh 30.43 in1030.5 mb 0.00 in0.0 mm 0.00 in0.0 mm 0.01 in0.3 mm
04:15 PM 50.6°F10.3°C 4.6°F-15.2°C 15% 4.7 mph N7.6 kmh N 7.6 mph12.2 kmh 30.43 in1030.5 mb 0.00 in0.0 mm 0.00 in0.0 mm 0.01 in0.3 mm
04:00 PM 51.2°F10.7°C 5.0°F-15.0°C 15% 4.8 mph N7.7 kmh N 7.6 mph12.2 kmh 30.43 in1030.5 mb 0.00 in0.0 mm 0.00 in0.0 mm 0.01 in0.3 mm
03:45 PM 51.0°F10.6°C 4.9°F-15.1°C 15% 5.0 mph N8.0 kmh N 8.3 mph13.4 kmh 30.43 in1030.5 mb 0.00 in0.0 mm 0.00 in0.0 mm 0.01 in0.3 mm
03:30 PM 51.3°F10.7°C 5.2°F-14.9°C 15% 4.9 mph N7.9 kmh N 6.9 mph11.1 kmh 30.43 in1030.5 mb 0.00 in0.0 mm 0.00 in0.0 mm 0.01 in0.3 mm
03:15 PM 50.1°F10.1°C 4.1°F-15.5°C 15% 4.6 mph N7.4 kmh N 9.2 mph14.8 kmh 30.43 in1030.5 mb 0.00 in0.0 mm 0.00 in0.0 mm 0.01 in0.3 mm
03:00 PM 49.9°F9.9°C 4.0°F-15.6°C 15% 5.7 mph NNE9.2 kmh NNE 8.3 mph13.4 kmh 30.44 in1030.8 mb 0.00 in0.0 mm 0.00 in0.0 mm 0.01 in0.3 mm
02:45 PM 46.7°F8.2°C 1.4°F-17.0°C 15% 5.2 mph NNW8.4 kmh NNW 9.8 mph15.8 kmh 30.45 in1031.2 mb 0.00 in0.0 mm 0.00 in0.0 mm 0.01 in0.3 mm
02:30 PM 47.0°F8.3°C 1.7°F-16.8°C 15% 6.6 mph NNW10.6 kmh NNW 9.8 mph15.8 kmh 30.45 in1031.2 mb 0.00 in0.0 mm 0.00 in0.0 mm 0.01 in0.3 mm
02:15 PM 46.8°F8.2°C 1.5°F-16.9°C 15% 6.8 mph NNW10.9 kmh NNW 8.3 mph13.4 kmh 30.45 in1031.2 mb 0.00 in0.0 mm 0.00 in0.0 mm 0.01 in0.3 mm
02:00 PM 46.8°F8.2°C 1.5°F-16.9°C 15% 6.3 mph N10.1 kmh N 9.8 mph15.8 kmh 30.46 in1031.5 mb 0.00 in0.0 mm 0.00 in0.0 mm 0.01 in0.3 mm
01:45 PM 47.7°F8.7°C 2.2°F-16.6°C 15% 4.6 mph SSE7.4 kmh SSE 8.3 mph13.4 kmh 30.46 in1031.5 mb 0.00 in0.0 mm 0.00 in0.0 mm 0.01 in0.3 mm
01:30 PM 47.0°F8.3°C 1.7°F-16.8°C 15% 6.0 mph N9.7 kmh N 8.3 mph13.4 kmh 30.46 in1031.5 mb 0.00 in0.0 mm 0.00 in0.0 mm 0.01 in0.3 mm
01:15 PM 45.8°F7.7°C 0.6°F-17.4°C 15% 5.0 mph N8.0 kmh N 7.6 mph12.2 kmh 30.46 in1031.5 mb 0.00 in0.0 mm 0.00 in0.0 mm 0.01 in0.3 mm
01:00 PM 45.4°F7.4°C 0.4°F-17.6°C 15% 4.4 mph S7.1 kmh S 6.0 mph9.7 kmh 30.46 in1031.5 mb 0.00 in0.0 mm 0.00 in0.0 mm 0.01 in0.3 mm
12:45 PM 45.2°F7.3°C 0.2°F-17.7°C 15% 3.8 mph ENE6.1 kmh ENE 7.6 mph12.2 kmh 30.46 in1031.5 mb 0.00 in0.0 mm 0.00 in0.0 mm 0.01 in0.3 mm
12:30 PM 45.2°F7.3°C 0.2°F-17.7°C 15% 4.5 mph SE7.2 kmh SE 6.9 mph11.1 kmh 30.47 in1031.8 mb 0.00 in0.0 mm 0.00 in0.0 mm 0.01 in0.3 mm
12:15 PM 44.5°F6.9°C -0.4°F-18.0°C 15% 4.3 mph NNE6.9 kmh NNE 5.4 mph8.7 kmh 30.47 in1031.8 mb 0.00 in0.0 mm 0.00 in0.0 mm 0.01 in0.3 mm
12:00 PM 43.2°F6.2°C -1.4°F-18.6°C 15% 5.8 mph NE9.3 kmh NE 9.2 mph14.8 kmh 30.47 in1031.8 mb 0.00 in0.0 mm 0.00 in0.0 mm 0.01 in0.3 mm
11:45 AM 42.3°F5.7°C -2.1°F-18.9°C 15% 5.0 mph N8.0 kmh N 6.0 mph9.7 kmh 30.47 in1031.8 mb 0.00 in0.0 mm 0.00 in0.0 mm 0.01 in0.3 mm
11:30 AM 42.7°F5.9°C -1.8°F-18.8°C 15% 5.9 mph E9.5 kmh E 9.8 mph15.8 kmh 30.48 in1032.2 mb 0.00 in0.0 mm 0.00 in0.0 mm 0.01 in0.3 mm
11:15 AM 41.8°F5.4°C -2.6°F-19.2°C 15% 3.9 mph N6.3 kmh N 5.4 mph8.7 kmh 30.47 in1031.8 mb 0.00 in0.0 mm 0.00 in0.0 mm 0.01 in0.3 mm
11:00 AM 40.5°F4.7°C -3.6°F-19.8°C 15% 4.8 mph SW7.7 kmh SW 8.3 mph13.4 kmh 30.47 in1031.8 mb 0.00 in0.0 mm 0.00 in0.0 mm 0.01 in0.3 mm
10:45 AM 38.9°F3.8°C -4.9°F-20.5°C 15% 4.7 mph NNE7.6 kmh NNE 7.6 mph12.2 kmh 30.47 in1031.8 mb 0.00 in0.0 mm 0.00 in0.0 mm 0.01 in0.3 mm
10:30 AM 38.0°F3.3°C 0.4°F-17.6°C 20% 3.6 mph ENE5.8 kmh ENE 6.0 mph9.7 kmh 30.46 in1031.5 mb 0.00 in0.0 mm 0.00 in0.0 mm 0.01 in0.3 mm
10:15 AM 36.4°F2.4°C -0.9°F-18.3°C 20% 4.3 mph N6.9 kmh N 6.9 mph11.1 kmh 30.46 in1031.5 mb 0.00 in0.0 mm 0.00 in0.0 mm 0.01 in0.3 mm
10:00 AM 34.6°F1.4°C 0.5°F-17.5°C 23% 5.6 mph N9.0 kmh N 9.8 mph15.8 kmh 30.46 in1031.5 mb 0.00 in0.0 mm 0.00 in0.0 mm 0.01 in0.3 mm
09:45 AM 33.7°F0.9°C 2.4°F-16.4°C 26% 4.9 mph NNE7.9 kmh NNE 7.6 mph12.2 kmh 30.45 in1031.2 mb 0.00 in0.0 mm 0.00 in0.0 mm 0.01 in0.3 mm
09:30 AM 32.4°F0.2°C 3.7°F-15.7°C 29% 5.5 mph NNE8.9 kmh NNE 7.6 mph12.2 kmh 30.44 in1030.8 mb 0.00 in0.0 mm 0.00 in0.0 mm 0.01 in0.3 mm
09:15 AM 31.9°F-0.1°C 4.6°F-15.2°C 31% 4.4 mph N7.1 kmh N 6.0 mph9.7 kmh 30.44 in1030.8 mb 0.00 in0.0 mm 0.00 in0.0 mm 0.01 in0.3 mm
09:00 AM 30.5°F-0.8°C 5.4°F-14.8°C 34% 4.7 mph N7.6 kmh N 7.6 mph12.2 kmh 30.44 in1030.8 mb 0.00 in0.0 mm 0.00 in0.0 mm 0.01 in0.3 mm
08:45 AM 29.2°F-1.6°C 5.5°F-14.7°C 36% 3.5 mph N5.6 kmh N 4.5 mph7.2 kmh 30.43 in1030.5 mb 0.00 in0.0 mm 0.00 in0.0 mm 0.01 in0.3 mm
08:30 AM 27.4°F-2.6°C 4.5°F-15.3°C 37% 4.4 mph N7.1 kmh N 8.3 mph13.4 kmh 30.42 in1030.1 mb 0.00 in0.0 mm 0.00 in0.0 mm 0.01 in0.3 mm
08:15 AM 26.1°F-3.3°C 4.5°F-15.3°C 39% 2.7 mph N4.3 kmh N 5.4 mph8.7 kmh 30.41 in1029.8 mb 0.00 in0.0 mm 0.00 in0.0 mm 0.01 in0.3 mm
08:00 AM 24.5°F-4.2°C 4.7°F-15.2°C 42% 1.1 mph N1.8 kmh N 3.8 mph6.1 kmh 30.41 in1029.8 mb 0.00 in0.0 mm 0.00 in0.0 mm 0.01 in0.3 mm
07:45 AM 23.4°F-4.8°C 3.7°F-15.7°C 42% 1.4 mph N2.3 kmh N 3.1 mph5.0 kmh 30.41 in1029.8 mb 0.00 in0.0 mm 0.00 in0.0 mm 0.01 in0.3 mm
07:30 AM 22.9°F-5.1°C 3.2°F-16.0°C 42% Calm Calm -- 30.40 in1029.5 mb 0.00 in0.0 mm 0.00 in0.0 mm 0.01 in0.3 mm
07:15 AM 22.9°F-5.1°C 3.2°F-16.0°C 42% Calm Calm -- 30.39 in1029.1 mb 0.00 in0.0 mm 0.00 in0.0 mm 0.01 in0.3 mm
07:00 AM 23.1°F-4.9°C 3.4°F-15.9°C 42% 0.1 mph N0.2 kmh N 0.7 mph1.1 kmh 30.38 in1028.8 mb 0.00 in0.0 mm 0.00 in0.0 mm 0.01 in0.3 mm
06:45 AM 23.3°F-4.8°C 3.0°F-16.1°C 41% Calm Calm -- 30.38 in1028.8 mb 0.00 in0.0 mm 0.00 in0.0 mm 0.01 in0.3 mm
06:30 AM 23.4°F-4.8°C 3.2°F-16.0°C 41% Calm Calm -- 30.38 in1028.8 mb 0.00 in0.0 mm 0.00 in0.0 mm 0.01 in0.3 mm
06:15 AM 24.0°F-4.4°C 3.1°F-16.1°C 40% Calm Calm -- 30.37 in1028.4 mb 0.00 in0.0 mm 0.00 in0.0 mm 0.01 in0.3 mm
06:00 AM 24.2°F-4.3°C 2.2°F-16.6°C 38% Calm Calm -- 30.37 in1028.4 mb 0.00 in0.0 mm 0.00 in0.0 mm 0.01 in0.3 mm
05:45 AM 24.7°F-4.1°C 2.1°F-16.6°C 37% Calm Calm -- 30.35 in1027.8 mb 0.00 in0.0 mm 0.00 in0.0 mm 0.01 in0.3 mm
05:30 AM 25.1°F-3.8°C 1.8°F-16.8°C 36% Calm Calm -- 30.35 in1027.8 mb 0.00 in0.0 mm 0.00 in0.0 mm 0.01 in0.3 mm
05:15 AM 25.4°F-3.7°C 1.5°F-16.9°C 35% Calm Calm -- 30.34 in1027.4 mb 0.00 in0.0 mm 0.00 in0.0 mm 0.01 in0.3 mm
05:00 AM 25.8°F-3.4°C 1.2°F-17.1°C 34% Calm Calm -- 30.34 in1027.4 mb 0.00 in0.0 mm 0.00 in0.0 mm 0.01 in0.3 mm
04:45 AM 26.0°F-3.3°C 1.4°F-17.0°C 34% 0.1 mph N0.2 kmh N 0.7 mph1.1 kmh 30.33 in1027.1 mb 0.00 in0.0 mm 0.00 in0.0 mm 0.01 in0.3 mm
04:30 AM 26.5°F-3.1°C 1.2°F-17.1°C 33% Calm Calm -- 30.33 in1027.1 mb 0.00 in0.0 mm 0.00 in0.0 mm 0.01 in0.3 mm
04:15 AM 26.9°F-2.8°C 0.9°F-17.3°C 32% 0.9 mph NW1.4 kmh NW 2.2 mph3.5 kmh 30.32 in1026.8 mb 0.00 in0.0 mm 0.00 in0.0 mm 0.01 in0.3 mm
04:00 AM 27.6°F-2.4°C 0.1°F-17.7°C 30% Calm Calm -- 30.32 in1026.8 mb 0.00 in0.0 mm 0.00 in0.0 mm 0.01 in0.3 mm
03:45 AM 27.8°F-2.3°C -0.4°F-18.0°C 29% 1.2 mph N1.9 kmh N 3.1 mph5.0 kmh 30.32 in1026.8 mb 0.00 in0.0 mm 0.00 in0.0 mm 0.01 in0.3 mm
03:30 AM 28.1°F-2.2°C -0.1°F-17.8°C 29% 1.0 mph NW1.6 kmh NW 2.2 mph3.5 kmh 30.31 in1026.4 mb 0.00 in0.0 mm 0.00 in0.0 mm 0.01 in0.3 mm
03:15 AM 28.7°F-1.8°C -0.4°F-18.0°C 28% 1.6 mph N2.6 kmh N 2.2 mph3.5 kmh 30.31 in1026.4 mb 0.00 in0.0 mm 0.00 in0.0 mm 0.01 in0.3 mm
03:00 AM 29.0°F-1.7°C -0.9°F-18.3°C 27% 1.8 mph WNW2.9 kmh WNW 3.1 mph5.0 kmh 30.32 in1026.8 mb 0.00 in0.0 mm 0.00 in0.0 mm 0.01 in0.3 mm
02:45 AM 29.2°F-1.6°C -0.7°F-18.2°C 27% 2.5 mph N4.0 kmh N 4.5 mph7.2 kmh 30.31 in1026.4 mb 0.00 in0.0 mm 0.00 in0.0 mm 0.01 in0.3 mm
02:30 AM 29.6°F-1.3°C -0.4°F-18.0°C 27% 2.3 mph N3.7 kmh N 4.5 mph7.2 kmh 30.31 in1026.4 mb 0.00 in0.0 mm 0.00 in0.0 mm 0.01 in0.3 mm
02:15 AM 29.7°F-1.3°C -1.0°F-18.3°C 26% 2.9 mph N4.7 kmh N 3.8 mph6.1 kmh 30.31 in1026.4 mb 0.00 in0.0 mm 0.00 in0.0 mm 0.01 in0.3 mm
02:00 AM 29.9°F-1.2°C -0.9°F-18.3°C 26% 3.8 mph N6.1 kmh N 6.0 mph9.7 kmh 30.31 in1026.4 mb 0.00 in0.0 mm 0.00 in0.0 mm 0.01 in0.3 mm
01:45 AM 30.3°F-0.9°C -0.6°F-18.1°C 26% 3.5 mph N5.6 kmh N 7.6 mph12.2 kmh 30.30 in1026.1 mb 0.00 in0.0 mm 0.00 in0.0 mm 0.01 in0.3 mm
01:30 AM 30.6°F-0.8°C 0.6°F-17.4°C 27% 2.9 mph NNW4.7 kmh NNW 6.0 mph9.7 kmh 30.30 in1026.1 mb 0.00 in0.0 mm 0.00 in0.0 mm 0.01 in0.3 mm
01:15 AM 30.8°F-0.7°C -0.1°F-17.8°C 26% 4.2 mph N6.8 kmh N 7.6 mph12.2 kmh 30.30 in1026.1 mb 0.00 in0.0 mm 0.00 in0.0 mm 0.01 in0.3 mm
01:00 AM 31.2°F-0.4°C -0.6°F-18.1°C 25% 5.2 mph N8.4 kmh N 11.4 mph18.3 kmh 30.30 in1026.1 mb 0.00 in0.0 mm 0.00 in0.0 mm 0.01 in0.3 mm
12:45 AM 31.4°F-0.3°C 1.2°F-17.1°C 27% 3.1 mph NNW5.0 kmh NNW 6.0 mph9.7 kmh 30.30 in1026.1 mb 0.00 in0.0 mm 0.00 in0.0 mm 0.01 in0.3 mm
12:30 AM 31.7°F-0.2°C 3.0°F-16.1°C 29% 4.2 mph NNW6.8 kmh NNW 6.0 mph9.7 kmh 30.30 in1026.1 mb 0.00 in0.0 mm 0.00 in0.0 mm 0.01 in0.3 mm
12:15 AM 32.3°F0.2°C 3.5°F-15.8°C 29% 5.4 mph N8.7 kmh N 9.8 mph15.8 kmh 30.29 in1025.7 mb 0.01 in0.3 mm 0.00 in0.0 mm 0.01 in0.3 mm
12:00 AM 32.6°F0.3°C 5.3°F-14.8°C 31% 5.9 mph N9.5 kmh N 9.2 mph14.8 kmh 30.28 in1025.4 mb 0.01 in0.3 mm 0.00 in0.0 mm 0.01 in0.3 mm